Terminal Aerodrome Forecast
Issued by NWS Corpus Christi, TX

Home | Current Version | Previous Version | Text Only | Print | Product List | Glossary On
Versions: 1 2 3 4 5 6 7 8 9 10 11 12 13 14 15 16 17 18 19
000
FTUS44 KCRP 311700
TAFVCT
TAF
KVCT 311727Z 3118/0118 14014G23KT P6SM BKN020 OVC035
     FM010100 14012KT P6SM BKN012 OVC100
      TEMPO 0101/0105 5SM -SHRA OVC009
     FM010600 13008KT 4SM -SHRA BR OVC006
     FM011400 26005KT P6SM VCSH BKN020 OVC100=

USA.gov is the U.S. government's official web portal to all federal, state and local government web resources and services.